Dubai Fortune — H9SA — position and weather

sailwx.info

Track history (hours):
 
Tides and Currents Weather Stations Pressure Air Temp Water Temp Dewpoint Dewpoint Depression Visibility Wind Speed Wind Dir Waves Ship Positions

Dubai Fortune

Last reported at 2017-Feb-15 20:25 UTC. Time now 2017-Feb-27 22:44 UTC.
Position N 22°55' E 119°12'.
Warning: this ship's position is 12 days out of date.

Length 188 m; draft 7 m.

Type: Cargo ship. MMSI: 353316000.

Date/timePositionNaut miles runAvg speedWind from/ knotsBaromVisibWave heightAir tempDewpointWater temp
2017-Feb-15 20:25N 22°55' E 119°12'1213.4
2017-Feb-15 19:32N 23°06' E 119°08'1312.9
2017-Feb-15 18:33N 23°16' E 118°59'6811.3
2017-Feb-15 12:33N 24°12' E 118°16'1211.5
2017-Feb-15 11:34N 24°21' E 118°09'3 3.0
2017-Feb-15 10:33N 24°24' E 118°08'0 0.1
2017-Feb-15 09:33N 24°24' E 118°08'0 0.2
2017-Feb-15 08:33N 24°24' E 118°07'0 0.1
2017-Feb-15 07:33N 24°24' E 118°07'0 0.1
2017-Feb-15 06:33N 24°24' E 118°07'0 0.0
2017-Feb-15 05:33N 24°24' E 118°07'0 0.0
2017-Feb-15 04:33N 24°24' E 118°07'0 0.1
2017-Feb-15 03:33N 24°24' E 118°07'0 0.1
2017-Feb-15 02:33N 24°24' E 118°08'0 0.1
2017-Feb-15 01:33N 24°24' E 118°08'0 0.0
2017-Feb-15 00:33N 24°24' E 118°08'0 0.0
2017-Feb-14 23:33N 24°24' E 118°08'0 0.0
2017-Feb-14 22:33N 24°24' E 118°08'0 0.1
2017-Feb-14 21:33N 24°24' E 118°08'0 0.0
2017-Feb-14 20:33N 24°24' E 118°08'0 0.0
2017-Feb-14 19:33N 24°24' E 118°08'0 0.2
2017-Feb-14 18:33N 24°24' E 118°07'0 0.1
2017-Feb-14 17:33N 24°24' E 118°07'0 0.0
2017-Feb-14 16:33N 24°24' E 118°07'0 0.0
2017-Feb-14 15:33N 24°24' E 118°07'0 0.0
2017-Feb-14 14:33N 24°24' E 118°07'0 0.1
2017-Feb-14 13:33N 24°24' E 118°07'0 0.1
2017-Feb-14 12:33N 24°24' E 118°07'0 0.0
2017-Feb-14 11:33N 24°24' E 118°07'0 0.0
2017-Feb-14 10:33N 24°24' E 118°07'0 0.0
2017-Feb-14 09:30N 24°24' E 118°07'0 0.0
2017-Feb-14 08:33N 24°24' E 118°07'0 0.1
2017-Feb-14 07:33N 24°24' E 118°07'0 0.1
2017-Feb-14 06:33N 24°24' E 118°07'0 0.0
2017-Feb-14 05:33N 24°24' E 118°07'0 0.0
2017-Feb-14 04:30N 24°24' E 118°07'0 0.0
2017-Feb-14 03:33N 24°24' E 118°07'0 0.0
2017-Feb-14 02:33N 24°24' E 118°07'0 0.2
2017-Feb-14 01:33N 24°24' E 118°08'0 0.1
2017-Feb-14 00:33N 24°24' E 118°08'0 0.0
2017-Feb-13 23:33N 24°24' E 118°08'0 0.0
2017-Feb-13 22:33N 24°24' E 118°08'0 0.1
2017-Feb-13 21:33N 24°24' E 118°08'0 0.0
2017-Feb-13 20:33N 24°24' E 118°08'0 0.0
2017-Feb-13 19:33N 24°24' E 118°08'0 0.1
2017-Feb-13 18:33N 24°24' E 118°07'0 0.1
2017-Feb-13 17:33N 24°24' E 118°07'0 0.0
2017-Feb-13 16:33N 24°24' E 118°07'0 0.0
2017-Feb-13 15:33N 24°24' E 118°07'0 0.0
2017-Feb-13 14:33N 24°24' E 118°07'0 0.0
2017-Feb-13 13:33N 24°24' E 118°07'0 0.1
2017-Feb-13 12:30N 24°24' E 118°07'0 0.1
2017-Feb-13 11:33N 24°24' E 118°08'0 0.3
2017-Feb-13 10:33N 24°24' E 118°07'6 6.5
2017-Feb-13 09:33N 24°19' E 118°12'1211.8
2017-Feb-13 08:33N 24°15' E 118°24'46411.7
2017-Feb-11 17:03N 30°55' E 122°49'611.7
2017-Feb-11 16:33N 30°60' E 122°45'1010.1
2017-Feb-11 15:33N 31°06' E 122°35'1010.1
2017-Feb-11 14:33N 31°06' E 122°23'9 9.1
2017-Feb-11 13:33N 31°09' E 122°13'1111.4
2017-Feb-11 12:33N 31°14' E 122°02'1514.7
2017-Feb-11 11:33N 31°19' E 121°45'1212.1
2017-Feb-11 10:33N 31°24' E 121°33'1010.3
2017-Feb-11 09:33N 31°31' E 121°23'1211.6
2017-Feb-11 08:33N 31°39' E 121°13'1111.2
2017-Feb-11 07:33N 31°46' E 121°03'28 9.0
2017-Feb-11 04:29N 32°00' E 120°35'1212.8
2017-Feb-11 03:33N 31°59' E 120°21'  
2017-Feb-06 02:14N 32°01' E 120°24'7 9.4
2017-Feb-06 01:32N 32°02' E 120°32'2010.1
2017-Feb-05 23:33N 31°54' E 120°53'9 9.1
2017-Feb-05 22:33N 31°47' E 121°00'10 9.9
2017-Feb-05 21:33N 31°42' E 121°10'5 5.0
2017-Feb-05 20:33N 31°39' E 121°15'  
Track history (hours):
 
Tides and Currents Weather Stations Pressure Air Temp Water Temp Dewpoint Dewpoint Depression Visibility Wind Speed Wind Dir Waves Ship Positions

Dubai Fortune

Last reported at 2017-Feb-15 20:25 UTC. Time now 2017-Feb-27 22:44 UTC.
Position N 22°55' E 119°12'.
Warning: this ship's position is 12 days out of date.

Length 188 m; draft 7 m.

Type: Cargo ship. MMSI: 353316000.

Date/timePositionNaut miles runAvg speedWind from/ knotsBaromVisibWave heightAir tempDewpointWater temp
2017-Feb-15 20:25N 22°55' E 119°12'1213.4
2017-Feb-15 19:32N 23°06' E 119°08'1312.9
2017-Feb-15 18:33N 23°16' E 118°59'6811.3
2017-Feb-15 12:33N 24°12' E 118°16'1211.5
2017-Feb-15 11:34N 24°21' E 118°09'3 3.0
2017-Feb-15 10:33N 24°24' E 118°08'0 0.1
2017-Feb-15 09:33N 24°24' E 118°08'0 0.2
2017-Feb-15 08:33N 24°24' E 118°07'0 0.1
2017-Feb-15 07:33N 24°24' E 118°07'0 0.1
2017-Feb-15 06:33N 24°24' E 118°07'0 0.0
2017-Feb-15 05:33N 24°24' E 118°07'0 0.0
2017-Feb-15 04:33N 24°24' E 118°07'0 0.1
2017-Feb-15 03:33N 24°24' E 118°07'0 0.1
2017-Feb-15 02:33N 24°24' E 118°08'0 0.1
2017-Feb-15 01:33N 24°24' E 118°08'0 0.0
2017-Feb-15 00:33N 24°24' E 118°08'0 0.0
2017-Feb-14 23:33N 24°24' E 118°08'0 0.0
2017-Feb-14 22:33N 24°24' E 118°08'0 0.1
2017-Feb-14 21:33N 24°24' E 118°08'0 0.0
2017-Feb-14 20:33N 24°24' E 118°08'0 0.0
2017-Feb-14 19:33N 24°24' E 118°08'0 0.2
2017-Feb-14 18:33N 24°24' E 118°07'0 0.1
2017-Feb-14 17:33N 24°24' E 118°07'0 0.0
2017-Feb-14 16:33N 24°24' E 118°07'0 0.0
2017-Feb-14 15:33N 24°24' E 118°07'0 0.0
2017-Feb-14 14:33N 24°24' E 118°07'0 0.1
2017-Feb-14 13:33N 24°24' E 118°07'0 0.1
2017-Feb-14 12:33N 24°24' E 118°07'0 0.0
2017-Feb-14 11:33N 24°24' E 118°07'0 0.0
2017-Feb-14 10:33N 24°24' E 118°07'0 0.0
2017-Feb-14 09:30N 24°24' E 118°07'0 0.0
2017-Feb-14 08:33N 24°24' E 118°07'0 0.1
2017-Feb-14 07:33N 24°24' E 118°07'0 0.1
2017-Feb-14 06:33N 24°24' E 118°07'0 0.0
2017-Feb-14 05:33N 24°24' E 118°07'0 0.0
2017-Feb-14 04:30N 24°24' E 118°07'0 0.0
2017-Feb-14 03:33N 24°24' E 118°07'0 0.0
2017-Feb-14 02:33N 24°24' E 118°07'0 0.2
2017-Feb-14 01:33N 24°24' E 118°08'0 0.1
2017-Feb-14 00:33N 24°24' E 118°08'0 0.0
2017-Feb-13 23:33N 24°24' E 118°08'0 0.0
2017-Feb-13 22:33N 24°24' E 118°08'0 0.1
2017-Feb-13 21:33N 24°24' E 118°08'0 0.0
2017-Feb-13 20:33N 24°24' E 118°08'0 0.0
2017-Feb-13 19:33N 24°24' E 118°08'0 0.1
2017-Feb-13 18:33N 24°24' E 118°07'0 0.1
2017-Feb-13 17:33N 24°24' E 118°07'0 0.0
2017-Feb-13 16:33N 24°24' E 118°07'0 0.0
2017-Feb-13 15:33N 24°24' E 118°07'0 0.0
2017-Feb-13 14:33N 24°24' E 118°07'0 0.0
2017-Feb-13 13:33N 24°24' E 118°07'0 0.1
2017-Feb-13 12:30N 24°24' E 118°07'0 0.1
2017-Feb-13 11:33N 24°24' E 118°08'0 0.3
2017-Feb-13 10:33N 24°24' E 118°07'6 6.5
2017-Feb-13 09:33N 24°19' E 118°12'1211.8
2017-Feb-13 08:33N 24°15' E 118°24'46411.7
2017-Feb-11 17:03N 30°55' E 122°49'611.7
2017-Feb-11 16:33N 30°60' E 122°45'1010.1
2017-Feb-11 15:33N 31°06' E 122°35'1010.1
2017-Feb-11 14:33N 31°06' E 122°23'9 9.1
2017-Feb-11 13:33N 31°09' E 122°13'1111.4
2017-Feb-11 12:33N 31°14' E 122°02'1514.7
2017-Feb-11 11:33N 31°19' E 121°45'1212.1
2017-Feb-11 10:33N 31°24' E 121°33'1010.3
2017-Feb-11 09:33N 31°31' E 121°23'1211.6
2017-Feb-11 08:33N 31°39' E 121°13'1111.2
2017-Feb-11 07:33N 31°46' E 121°03'28 9.0
2017-Feb-11 04:29N 32°00' E 120°35'1212.8
2017-Feb-11 03:33N 31°59' E 120°21'  
2017-Feb-06 02:14N 32°01' E 120°24'7 9.4
2017-Feb-06 01:32N 32°02' E 120°32'2010.1
2017-Feb-05 23:33N 31°54' E 120°53'9 9.1
2017-Feb-05 22:33N 31°47' E 121°00'10 9.9
2017-Feb-05 21:33N 31°42' E 121°10'5 5.0
2017-Feb-05 20:33N 31°39' E 121°15'  

Dump ship's entire track history